MSC Barbara — HODU — position and weather

sailwx.info

Track history (hours):
 
Tides and Currents Weather Stations Pressure Air Temp Water Temp Dewpoint Dewpoint Depression Visibility Wind Speed Wind Dir Waves Ship Positions

MSC Barbara

Last reported at 2015-Jan-30 13:32 UTC. Time now 2015-Jan-30 14:05 UTC.
Position N 51°19' E 004°19'.

; draft 10.2 m.

Type: Ship (hazmat cat D). MMSI: 353775000.

Date/timePositionNaut miles runAvg speedWind from/ knotsBaromVisibWave heightAir tempDewpointWater temp
2015-Jan-30 13:32N 51°19' E 004°19'0 0.0
2015-Jan-30 12:26N 51°19' E 004°19'0 0.0
2015-Jan-30 11:31N 51°19' E 004°19'0 0.0
2015-Jan-30 10:31N 51°19' E 004°19'0 0.0
2015-Jan-30 09:06N 51°19' E 004°19'0 0.0
2015-Jan-30 08:33N 51°19' E 004°19'1 1.3
2015-Jan-30 07:34N 51°20' E 004°18'0 0.4
2015-Jan-30 06:33N 51°21' E 004°17'1 1.3
2015-Jan-30 05:33N 51°21' E 004°15'9 8.8
2015-Jan-30 04:34N 51°24' E 004°02'10 9.7
2015-Jan-30 03:33N 51°21' E 003°47'9 9.4
2015-Jan-30 02:33N 51°25' E 003°34'1211.5
2015-Jan-30 01:33N 51°24' E 003°15'10 9.7
2015-Jan-30 00:33N 51°25' E 002°60'8 8.2
2015-Jan-29 23:33N 51°24' E 002°47'7 6.7
2015-Jan-29 22:34N 51°22' E 002°37'7 6.9
2015-Jan-29 21:33N 51°21' E 002°26'7 7.4
2015-Jan-29 20:33N 51°19' E 002°14'9 8.8
2015-Jan-29 19:32N 51°22' E 002°01'1717.6
2015-Jan-29 18:33N 51°37' E 001°47'1615.8
2015-Jan-29 17:33N 51°50' E 001°34'1111.1
2015-Jan-29 16:33N 51°40' E 001°26'1615.8
2015-Jan-29 15:33N 51°31' E 001°05'1515.0
2015-Jan-29 14:34N 51°30' E 000°41'7 6.7
2015-Jan-29 13:31N 51°30' E 000°30'0 0.0
2015-Jan-29 12:33N 51°30' E 000°30'0 0.0
2015-Jan-29 11:33N 51°30' E 000°30'0 0.0
2015-Jan-29 10:32N 51°30' E 000°30'0 0.0
2015-Jan-29 09:32N 51°30' E 000°30'0 0.0
2015-Jan-29 08:32N 51°30' E 000°30'0 0.0
2015-Jan-29 07:31N 51°30' E 000°30'0 0.0
2015-Jan-29 06:31N 51°30' E 000°30'0 0.0
2015-Jan-29 05:33N 51°30' E 000°30'0 0.0
2015-Jan-29 04:33N 51°30' E 000°30'0 0.0
2015-Jan-29 03:32N 51°30' E 000°30'4 4.0
2015-Jan-29 02:34N 51°30' E 000°36'1615.8
2015-Jan-29 01:34N 51°30' E 001°01'1615.8
2015-Jan-29 00:33N 51°39' E 001°23'1615.6
2015-Jan-28 23:33N 51°51' E 001°39'10 9.6
2015-Jan-28 22:33N 51°50' E 001°55'3315.8
2015-Jan-28 20:30N 52°01' E 002°44'1615.5
2015-Jan-28 19:30N 52°03' E 003°10'2115.0
2015-Jan-28 18:06N 52°04' E 003°43'915.5
2015-Jan-28 17:34N 52°02' E 003°57'6 6.1
2015-Jan-28 16:32N 51°58' E 004°04'0 0.0
2015-Jan-28 15:33N 51°58' E 004°04'0 0.0
2015-Jan-28 14:33N 51°58' E 004°04'0 0.0
2015-Jan-28 13:29N 51°58' E 004°04'0 0.0
2015-Jan-28 12:32N 51°58' E 004°04'0 0.0
2015-Jan-28 11:31N 51°58' E 004°04'0 0.0
2015-Jan-28 10:31N 51°58' E 004°04'0 0.0
2015-Jan-28 09:33N 51°58' E 004°04'0 0.0
2015-Jan-28 08:33N 51°58' E 004°04'0 0.0
2015-Jan-28 07:32N 51°58' E 004°04'0 0.0
2015-Jan-28 06:32N 51°58' E 004°04'0 0.0
2015-Jan-28 05:29N 51°58' E 004°04'0 0.0
2015-Jan-28 04:33N 51°58' E 004°04'0 0.0
2015-Jan-28 03:31N 51°58' E 004°04'0 0.0
2015-Jan-28 02:33N 51°58' E 004°04'0 0.0
2015-Jan-28 01:33N 51°58' E 004°04'0 0.0
2015-Jan-28 00:32N 51°58' E 004°04'0 0.0
2015-Jan-27 23:32N 51°58' E 004°04'0 0.0
2015-Jan-27 22:32N 51°58' E 004°04'0 0.0
2015-Jan-27 21:31N 51°58' E 004°04'0 0.0
2015-Jan-27 20:31N 51°58' E 004°04'0 0.0
2015-Jan-27 19:33N 51°58' E 004°04'0 0.0
2015-Jan-27 18:33N 51°58' E 004°04'0 0.0
2015-Jan-27 17:29N 51°58' E 004°04'0 0.0
2015-Jan-27 16:32N 51°58' E 004°04'0 0.0
2015-Jan-27 15:32N 51°58' E 004°04'0 0.0
2015-Jan-27 14:31N 51°58' E 004°04'0 0.0
2015-Jan-27 13:31N 51°58' E 004°04'0 0.0
2015-Jan-27 12:18N 51°58' E 004°04'0 0.0
2015-Jan-27 11:32N 51°58' E 004°04'0 0.0
2015-Jan-27 10:32N 51°58' E 004°04'0 0.0
2015-Jan-27 09:32N 51°58' E 004°04'0 0.0
2015-Jan-27 08:31N 51°58' E 004°04'0 0.0
2015-Jan-27 07:33N 51°58' E 004°04'1 1.0
2015-Jan-27 06:33N 51°58' E 004°05'9 9.2
2015-Jan-27 05:33N 51°60' E 003°51'2411.3
2015-Jan-27 03:24N 51°51' E 003°14'31 7.4
2015-Jan-26 23:15N 51°38' E 002°29'1013.7
2015-Jan-26 22:33N 51°32' E 002°18'1413.6
2015-Jan-26 21:33N 51°20' E 002°06'1212.2
2015-Jan-26 20:33N 51°10' E 001°55'1616.2
2015-Jan-26 19:33N 51°00' E 001°34'  
Track history (hours):
 
Tides and Currents Weather Stations Pressure Air Temp Water Temp Dewpoint Dewpoint Depression Visibility Wind Speed Wind Dir Waves Ship Positions

MSC Barbara

Last reported at 2015-Jan-30 13:32 UTC. Time now 2015-Jan-30 14:05 UTC.
Position N 51°19' E 004°19'.

; draft 10.2 m.

Type: Ship (hazmat cat D). MMSI: 353775000.

Date/timePositionNaut miles runAvg speedWind from/ knotsBaromVisibWave heightAir tempDewpointWater temp
2015-Jan-30 13:32N 51°19' E 004°19'0 0.0
2015-Jan-30 12:26N 51°19' E 004°19'0 0.0
2015-Jan-30 11:31N 51°19' E 004°19'0 0.0
2015-Jan-30 10:31N 51°19' E 004°19'0 0.0
2015-Jan-30 09:06N 51°19' E 004°19'0 0.0
2015-Jan-30 08:33N 51°19' E 004°19'1 1.3
2015-Jan-30 07:34N 51°20' E 004°18'0 0.4
2015-Jan-30 06:33N 51°21' E 004°17'1 1.3
2015-Jan-30 05:33N 51°21' E 004°15'9 8.8
2015-Jan-30 04:34N 51°24' E 004°02'10 9.7
2015-Jan-30 03:33N 51°21' E 003°47'9 9.4
2015-Jan-30 02:33N 51°25' E 003°34'1211.5
2015-Jan-30 01:33N 51°24' E 003°15'10 9.7
2015-Jan-30 00:33N 51°25' E 002°60'8 8.2
2015-Jan-29 23:33N 51°24' E 002°47'7 6.7
2015-Jan-29 22:34N 51°22' E 002°37'7 6.9
2015-Jan-29 21:33N 51°21' E 002°26'7 7.4
2015-Jan-29 20:33N 51°19' E 002°14'9 8.8
2015-Jan-29 19:32N 51°22' E 002°01'1717.6
2015-Jan-29 18:33N 51°37' E 001°47'1615.8
2015-Jan-29 17:33N 51°50' E 001°34'1111.1
2015-Jan-29 16:33N 51°40' E 001°26'1615.8
2015-Jan-29 15:33N 51°31' E 001°05'1515.0
2015-Jan-29 14:34N 51°30' E 000°41'7 6.7
2015-Jan-29 13:31N 51°30' E 000°30'0 0.0
2015-Jan-29 12:33N 51°30' E 000°30'0 0.0
2015-Jan-29 11:33N 51°30' E 000°30'0 0.0
2015-Jan-29 10:32N 51°30' E 000°30'0 0.0
2015-Jan-29 09:32N 51°30' E 000°30'0 0.0
2015-Jan-29 08:32N 51°30' E 000°30'0 0.0
2015-Jan-29 07:31N 51°30' E 000°30'0 0.0
2015-Jan-29 06:31N 51°30' E 000°30'0 0.0
2015-Jan-29 05:33N 51°30' E 000°30'0 0.0
2015-Jan-29 04:33N 51°30' E 000°30'0 0.0
2015-Jan-29 03:32N 51°30' E 000°30'4 4.0
2015-Jan-29 02:34N 51°30' E 000°36'1615.8
2015-Jan-29 01:34N 51°30' E 001°01'1615.8
2015-Jan-29 00:33N 51°39' E 001°23'1615.6
2015-Jan-28 23:33N 51°51' E 001°39'10 9.6
2015-Jan-28 22:33N 51°50' E 001°55'3315.8
2015-Jan-28 20:30N 52°01' E 002°44'1615.5
2015-Jan-28 19:30N 52°03' E 003°10'2115.0
2015-Jan-28 18:06N 52°04' E 003°43'915.5
2015-Jan-28 17:34N 52°02' E 003°57'6 6.1
2015-Jan-28 16:32N 51°58' E 004°04'0 0.0
2015-Jan-28 15:33N 51°58' E 004°04'0 0.0
2015-Jan-28 14:33N 51°58' E 004°04'0 0.0
2015-Jan-28 13:29N 51°58' E 004°04'0 0.0
2015-Jan-28 12:32N 51°58' E 004°04'0 0.0
2015-Jan-28 11:31N 51°58' E 004°04'0 0.0
2015-Jan-28 10:31N 51°58' E 004°04'0 0.0
2015-Jan-28 09:33N 51°58' E 004°04'0 0.0
2015-Jan-28 08:33N 51°58' E 004°04'0 0.0
2015-Jan-28 07:32N 51°58' E 004°04'0 0.0
2015-Jan-28 06:32N 51°58' E 004°04'0 0.0
2015-Jan-28 05:29N 51°58' E 004°04'0 0.0
2015-Jan-28 04:33N 51°58' E 004°04'0 0.0
2015-Jan-28 03:31N 51°58' E 004°04'0 0.0
2015-Jan-28 02:33N 51°58' E 004°04'0 0.0
2015-Jan-28 01:33N 51°58' E 004°04'0 0.0
2015-Jan-28 00:32N 51°58' E 004°04'0 0.0
2015-Jan-27 23:32N 51°58' E 004°04'0 0.0
2015-Jan-27 22:32N 51°58' E 004°04'0 0.0
2015-Jan-27 21:31N 51°58' E 004°04'0 0.0
2015-Jan-27 20:31N 51°58' E 004°04'0 0.0
2015-Jan-27 19:33N 51°58' E 004°04'0 0.0
2015-Jan-27 18:33N 51°58' E 004°04'0 0.0
2015-Jan-27 17:29N 51°58' E 004°04'0 0.0
2015-Jan-27 16:32N 51°58' E 004°04'0 0.0
2015-Jan-27 15:32N 51°58' E 004°04'0 0.0
2015-Jan-27 14:31N 51°58' E 004°04'0 0.0
2015-Jan-27 13:31N 51°58' E 004°04'0 0.0
2015-Jan-27 12:18N 51°58' E 004°04'0 0.0
2015-Jan-27 11:32N 51°58' E 004°04'0 0.0
2015-Jan-27 10:32N 51°58' E 004°04'0 0.0
2015-Jan-27 09:32N 51°58' E 004°04'0 0.0
2015-Jan-27 08:31N 51°58' E 004°04'0 0.0
2015-Jan-27 07:33N 51°58' E 004°04'1 1.0
2015-Jan-27 06:33N 51°58' E 004°05'9 9.2
2015-Jan-27 05:33N 51°60' E 003°51'2411.3
2015-Jan-27 03:24N 51°51' E 003°14'31 7.4
2015-Jan-26 23:15N 51°38' E 002°29'1013.7
2015-Jan-26 22:33N 51°32' E 002°18'1413.6
2015-Jan-26 21:33N 51°20' E 002°06'1212.2
2015-Jan-26 20:33N 51°10' E 001°55'1616.2
2015-Jan-26 19:33N 51°00' E 001°34'  

Dump ship's entire track history